Time;durP1;ratioP1;P1;durP2;ratioP2;P2;SDS_P1;SDS_P2;PMS_P1;PMS_P2;Temp;Humidity;BMP_temperature;BMP_pressure;BME280_temperature;BME280_humidity;BME280_pressure;Samples;Min_cycle;Max_cycle;Signal;HPM_P1;HPM_P2
2024/04/14 00:02:17;;;;;;;12.38;7.90;;;;;;;13.80;100.00;101148.72;5343964;26;20001;-70
2024/04/14 00:04:48;;;;;;;14.45;7.57;;;;;;;13.68;100.00;101113.72;5344475;26;20711;-70
2024/04/14 00:07:16;;;;;;;9.23;8.15;;;;;;;13.72;100.00;101118.19;5344476;26;20009;-74
2024/04/14 00:09:41;;;;;;;14.23;8.50;;;;;;;13.96;100.00;101148.41;5343724;26;20008;-69
2024/04/14 00:12:07;;;;;;;9.68;8.40;;;;;;;13.93;100.00;101150.88;5344300;26;20037;-71
2024/04/14 00:14:32;;;;;;;10.60;8.05;;;;;;;13.77;100.00;101112.25;5347563;26;19989;-68
2024/04/14 00:16:58;;;;;;;12.73;8.07;;;;;;;13.97;100.00;101139.78;5347390;26;20472;-69
2024/04/14 00:19:23;;;;;;;12.68;8.43;;;;;;;13.95;100.00;101149.22;5347193;26;20000;-70
2024/04/14 00:21:49;;;;;;;11.63;8.07;;;;;;;13.73;100.00;101166.66;5347309;26;19997;-69
2024/04/14 00:24:16;;;;;;;13.55;8.82;;;;;;;13.75;100.00;101148.53;5373919;26;19997;-74
2024/04/14 00:26:41;;;;;;;13.95;8.27;;;;;;;13.56;100.00;101140.09;5347703;26;20435;-68
2024/04/14 00:29:07;;;;;;;11.68;8.70;;;;;;;13.57;100.00;101138.38;5347184;26;20003;-71
2024/04/14 00:31:32;;;;;;;12.05;8.05;;;;;;;13.34;100.00;101098.66;5347257;26;20001;-69
2024/04/14 00:33:58;;;;;;;15.23;8.63;;;;;;;13.64;100.00;101140.38;5347273;26;19997;-70
2024/04/14 00:36:23;;;;;;;11.13;8.15;;;;;;;13.77;100.00;101139.09;5347223;26;20075;-70
2024/04/14 00:38:49;;;;;;;12.90;8.30;;;;;;;13.60;100.00;101146.28;5346854;26;20015;-70
2024/04/14 00:41:15;;;;;;;13.00;8.90;;;;;;;13.58;100.00;101150.53;5346834;26;20078;-69
2024/04/14 00:43:40;;;;;;;16.90;7.78;;;;;;;13.68;100.00;101147.44;5347552;26;20004;-70
2024/04/14 00:46:07;;;;;;;9.65;7.82;;;;;;;13.86;100.00;101141.13;5347195;26;19993;-75
2024/04/14 00:48:32;;;;;;;10.75;8.40;;;;;;;13.98;100.00;101138.06;5347265;26;20008;-69
2024/04/14 00:50:59;;;;;;;13.23;8.45;;;;;;;14.16;100.00;101135.22;5374421;26;20008;-69
2024/04/14 00:53:25;;;;;;;12.68;8.07;;;;;;;14.29;100.00;101144.28;5346983;26;20455;-69
2024/04/14 00:55:51;;;;;;;10.73;8.15;;;;;;;14.34;100.00;101121.91;5347174;26;20056;-69
2024/04/14 00:58:18;;;;;;;11.52;8.45;;;;;;;14.50;100.00;101133.69;5347444;26;20001;-69
2024/04/14 01:00:44;;;;;;;12.30;7.95;;;;;;;14.48;100.00;101112.88;5346703;26;19997;-70
2024/04/14 01:03:10;;;;;;;11.90;7.93;;;;;;;14.64;100.00;101137.63;5346814;26;20092;-69
2024/04/14 01:05:35;;;;;;;13.75;8.77;;;;;;;14.75;100.00;101147.47;5346969;26;19993;-69
2024/04/14 01:08:01;;;;;;;11.32;8.15;;;;;;;14.62;100.00;101147.06;5373152;26;20012;-69
2024/04/14 01:10:30;;;;;;;14.05;8.50;;;;;;;14.37;100.00;101135.03;5374212;26;19996;-69
2024/04/14 01:12:56;;;;;;;12.55;8.57;;;;;;;13.97;100.00;101100.84;5372720;26;20016;-69
2024/04/14 01:15:21;;;;;;;15.10;8.65;;;;;;;14.10;100.00;101135.88;5346404;26;19997;-69
2024/04/14 01:17:47;;;;;;;10.20;7.97;;;;;;;14.12;100.00;101130.72;5346474;26;19997;-69
2024/04/14 01:20:13;;;;;;;10.00;7.75;;;;;;;14.23;100.00;101143.25;5346870;26;20001;-69
2024/04/14 01:22:38;;;;;;;13.25;8.63;;;;;;;14.20;100.00;101144.84;5346770;26;19993;-74
2024/04/14 01:25:25;;;;;;;12.15;7.88;;;;;;;14.25;100.00;101140.69;5377529;26;19996;-69
2024/04/14 01:27:50;;;;;;;11.13;8.10;;;;;;;14.16;100.00;101137.81;5378269;26;20008;-68
2024/04/14 01:30:16;;;;;;;12.10;7.97;;;;;;;13.72;100.00;101076.66;5378510;26;20073;-72
2024/04/14 01:32:42;;;;;;;10.20;7.88;;;;;;;13.77;100.00;101120.03;5378320;26;19993;-68
2024/04/14 01:35:08;;;;;;;14.68;8.10;;;;;;;13.80;100.00;101121.03;5378323;26;20013;-70
2024/04/14 01:37:33;;;;;;;14.07;7.57;;;;;;;13.99;100.00;101130.31;5377985;26;20008;-69
2024/04/14 01:39:59;;;;;;;12.15;7.40;;;;;;;13.76;100.00;101093.22;5377963;26;20032;-69
2024/04/14 01:42:26;;;;;;;12.45;7.57;;;;;;;13.91;100.00;101121.41;5377800;26;20350;-70
2024/04/14 01:44:51;;;;;;;31.40;8.13;;;;;;;13.86;100.00;101128.16;5377806;26;19993;-69
2024/04/14 01:47:17;;;;;;;12.35;8.20;;;;;;;13.87;100.00;101117.81;5377887;26;19993;-69
2024/04/14 01:49:44;;;;;;;11.40;8.00;;;;;;;13.91;100.00;101118.81;5377666;26;19996;-69
2024/04/14 01:52:09;;;;;;;9.48;7.63;;;;;;;13.88;100.00;101119.59;5377740;26;20439;-71
2024/04/14 01:54:35;;;;;;;12.70;7.55;;;;;;;13.63;100.00;101076.34;5348299;26;20000;-69
2024/04/14 01:57:00;;;;;;;11.88;8.30;;;;;;;13.93;100.00;101117.13;5354162;26;20029;-69
2024/04/14 01:59:26;;;;;;;12.50;8.00;;;;;;;13.90;100.00;101123.09;5346157;26;19992;-69
2024/04/14 02:01:52;;;;;;;12.60;7.45;;;;;;;13.83;100.00;101115.97;5343654;26;20005;-69
2024/04/14 02:04:17;;;;;;;12.77;8.05;;;;;;;13.74;100.00;101085.38;5345738;26;20034;-69
2024/04/14 02:06:43;;;;;;;10.13;7.60;;;;;;;13.97;100.00;101121.63;5345425;26;20572;-69
2024/04/14 02:09:08;;;;;;;11.02;7.20;;;;;;;13.93;100.00;101121.44;5345991;26;20009;-68
2024/04/14 02:11:34;;;;;;;10.80;7.15;;;;;;;13.79;100.00;101118.38;5345797;26;20008;-73
2024/04/14 02:13:59;;;;;;;13.40;7.50;;;;;;;13.22;100.00;101117.22;5345804;26;20012;-69
2024/04/14 02:16:25;;;;;;;11.13;7.85;;;;;;;13.06;100.00;101128.72;5345855;26;20004;-69
2024/04/14 02:18:51;;;;;;;13.40;8.90;;;;;;;13.02;100.00;101116.50;5345759;26;20017;-69
2024/04/14 02:21:16;;;;;;;12.18;7.93;;;;;;;12.95;100.00;101110.19;5345824;26;20005;-69
2024/04/14 02:23:43;;;;;;;13.50;7.65;;;;;;;12.95;100.00;101105.88;5345534;26;20007;-69
2024/04/14 02:26:08;;;;;;;10.18;7.75;;;;;;;13.07;100.00;101118.44;5345416;26;20077;-69
2024/04/14 02:28:34;;;;;;;13.10;7.45;;;;;;;13.21;100.00;101131.03;5345531;26;20410;-69
2024/04/14 02:30:59;;;;;;;10.45;7.80;;;;;;;13.11;100.00;101116.84;5345642;26;20027;-68
2024/04/14 02:33:26;;;;;;;12.63;7.68;;;;;;;13.18;100.00;101121.41;5345366;26;19997;-70
2024/04/14 02:36:01;;;;;;;8.13;7.07;;;;;;;13.21;100.00;101118.94;5372866;26;20008;-69
2024/04/14 02:38:28;;;;;;;12.52;6.55;;;;;;;13.33;100.00;101128.88;5345187;26;20078;-70
2024/04/14 02:41:04;;;;;;;9.80;7.47;;;;;;;13.23;100.00;101134.53;5345367;26;20008;-70
2024/04/14 02:43:33;;;;;;;10.52;7.70;;;;;;;13.10;100.00;101131.50;5345470;26;20005;-68
2024/04/14 02:45:59;;;;;;;14.60;8.13;;;;;;;12.94;100.00;101119.66;5345245;26;20036;-69
2024/04/14 02:48:24;;;;;;;12.90;8.00;;;;;;;12.94;100.00;101122.25;5345289;26;20005;-69
2024/04/14 02:50:50;;;;;;;15.13;7.82;;;;;;;13.08;100.00;101128.00;5345307;26;20008;-68
2024/04/14 02:53:16;;;;;;;15.73;7.38;;;;;;;13.10;100.00;101123.72;5345165;26;20438;-69
2024/04/14 02:55:42;;;;;;;11.40;8.07;;;;;;;13.11;100.00;101130.69;5345346;26;20007;-70
2024/04/14 02:58:08;;;;;;;11.35;7.90;;;;;;;12.87;100.00;101130.66;5345227;26;20420;-70
2024/04/14 03:00:34;;;;;;;11.75;8.23;;;;;;;12.80;100.00;101123.47;5344896;26;20012;-69
2024/04/14 03:02:59;;;;;;;14.82;8.30;;;;;;;12.86;100.00;101134.06;5345152;26;20005;-68
2024/04/14 03:05:26;;;;;;;12.10;8.45;;;;;;;12.61;100.00;101109.78;5345108;26;19997;-72
2024/04/14 03:07:52;;;;;;;20.25;9.40;;;;;;;12.61;100.00;101124.44;5344934;26;20048;-69
2024/04/14 03:10:18;;;;;;;13.02;9.20;;;;;;;12.24;100.00;101076.41;5345052;26;20071;-69
2024/04/14 03:12:44;;;;;;;12.65;8.23;;;;;;;12.47;100.00;101118.72;5344908;26;20406;-72
2024/04/14 03:15:11;;;;;;;13.68;9.00;;;;;;;12.17;100.00;101131.31;5345046;26;20368;-68
2024/04/14 03:17:36;;;;;;;13.15;8.95;;;;;;;12.15;100.00;101118.31;5344780;26;20004;-69
2024/04/14 03:20:02;;;;;;;14.43;8.57;;;;;;;12.24;100.00;101134.22;5345041;26;20037;-69
2024/04/14 03:22:28;;;;;;;17.45;9.27;;;;;;;12.27;100.00;101133.47;5345067;26;20022;-69
2024/04/14 03:24:53;;;;;;;11.23;8.60;;;;;;;12.28;100.00;101141.28;5344741;26;20440;-69
2024/04/14 03:27:19;;;;;;;13.80;9.18;;;;;;;12.29;100.00;101139.59;5344289;26;20013;-69
2024/04/14 03:29:45;;;;;;;13.48;8.73;;;;;;;12.23;100.00;101140.22;5344392;26;20770;-69
2024/04/14 03:32:11;;;;;;;11.23;8.93;;;;;;;12.24;100.00;101139.41;5344747;26;20009;-69
2024/04/14 03:34:37;;;;;;;12.68;8.90;;;;;;;12.15;100.00;101139.03;5344984;26;20012;-73
2024/04/14 03:37:05;;;;;;;15.32;9.15;;;;;;;11.77;100.00;101140.84;5344717;26;20001;-70
2024/04/14 03:39:30;;;;;;;12.57;9.20;;;;;;;11.57;100.00;101121.88;5346418;26;20012;-73
2024/04/14 03:41:56;;;;;;;15.63;10.07;;;;;;;11.74;100.00;101151.94;5342409;26;20091;-73
2024/04/14 03:44:22;;;;;;;20.65;11.38;;;;;;;11.59;100.00;101125.41;5371452;26;20011;-70
2024/04/14 03:46:48;;;;;;;12.82;10.05;;;;;;;11.65;100.00;101136.91;5344445;26;20432;-71
2024/04/14 03:49:14;;;;;;;14.32;9.60;;;;;;;11.64;100.00;101144.63;5347588;26;20001;-71
2024/04/14 03:51:39;;;;;;;14.73;9.43;;;;;;;11.37;100.00;101132.22;5347965;26;20003;-71
2024/04/14 03:54:05;;;;;;;14.95;9.20;;;;;;;11.22;100.00;101139.31;5348064;26;19997;-73
2024/04/14 03:56:30;;;;;;;11.88;9.70;;;;;;;11.52;100.00;101151.84;5348000;26;19997;-71
2024/04/14 03:58:55;;;;;;;12.77;9.38;;;;;;;11.38;100.00;101115.91;5347500;26;20016;-73
2024/04/14 04:01:21;;;;;;;13.85;9.55;;;;;;;11.62;100.00;101148.84;5347585;26;20004;-70
2024/04/14 04:03:47;;;;;;;11.10;9.57;;;;;;;11.59;100.00;101136.66;5347786;26;20003;-72
2024/04/14 04:06:13;;;;;;;12.30;9.35;;;;;;;11.68;100.00;101151.69;5347658;26;19993;-72
2024/04/14 04:08:39;;;;;;;11.00;8.82;;;;;;;11.80;100.00;101151.31;5347664;26;19997;-73
2024/04/14 04:11:05;;;;;;;12.52;9.32;;;;;;;11.63;100.00;101122.16;5347395;26;20016;-71
2024/04/14 04:13:34;;;;;;;13.00;9.20;;;;;;;11.70;100.00;101141.41;5347338;26;19997;-71
2024/04/14 04:16:04;;;;;;;14.40;9.43;;;;;;;11.78;100.00;101156.44;5347251;26;20029;-71
2024/04/14 04:18:30;;;;;;;12.07;8.93;;;;;;;11.76;100.00;101145.16;5374583;26;20000;-74
2024/04/14 04:21:03;;;;;;;11.90;9.35;;;;;;;11.81;100.00;101155.69;5347566;26;19996;-70
2024/04/14 04:23:29;;;;;;;13.80;9.05;;;;;;;11.61;100.00;101144.47;5347600;26;20048;-71
2024/04/14 04:25:56;;;;;;;13.05;9.35;;;;;;;11.63;100.00;101155.78;5373679;26;20075;-74
2024/04/14 04:28:25;;;;;;;12.45;9.35;;;;;;;11.64;100.00;101163.59;5346516;26;20311;-70
2024/04/14 04:30:51;;;;;;;11.90;8.98;;;;;;;11.71;100.00;101161.28;5344216;26;20431;-69
2024/04/14 04:33:19;;;;;;;11.65;9.15;;;;;;;11.71;100.00;101164.75;5347125;26;20004;-69
2024/04/14 04:35:54;;;;;;;16.58;9.90;;;;;;;11.66;100.00;101163.66;5347405;26;20036;-70
2024/04/14 04:38:21;;;;;;;13.10;9.60;;;;;;;11.73;100.00;101157.06;5347378;26;20009;-69
2024/04/14 04:40:48;;;;;;;10.98;8.70;;;;;;;11.70;100.00;101169.84;5347534;26;20000;-69
2024/04/14 04:43:13;;;;;;;14.63;9.90;;;;;;;11.44;100.00;101154.97;5347459;26;19996;-75
2024/04/14 04:45:39;;;;;;;14.95;10.32;;;;;;;11.33;100.00;101162.22;5350892;26;19996;-71
2024/04/14 04:48:05;;;;;;;14.52;10.75;;;;;;;11.41;100.00;101170.31;5347570;26;20054;-70
2024/04/14 04:50:31;;;;;;;16.30;9.82;;;;;;;11.49;100.00;101163.81;5382092;26;20011;-68
2024/04/14 04:52:56;;;;;;;14.52;10.30;;;;;;;11.37;100.00;101118.44;5381654;26;19996;-68
2024/04/14 04:55:22;;;;;;;13.32;9.80;;;;;;;11.41;100.00;101126.38;5382111;26;20073;-67
2024/04/14 04:57:47;;;;;;;12.90;9.93;;;;;;;11.50;100.00;101125.88;5382343;26;19996;-68
2024/04/14 05:00:13;;;;;;;19.92;11.18;;;;;;;11.70;100.00;101150.06;5372311;26;20001;-68
2024/04/14 05:02:39;;;;;;;17.55;10.43;;;;;;;11.68;100.00;101130.13;5369408;26;20344;-69
2024/04/14 05:05:04;;;;;;;13.00;10.45;;;;;;;12.06;100.00;101173.19;5364258;26;20071;-72
2024/04/14 05:07:32;;;;;;;13.73;11.07;;;;;;;12.15;100.00;101167.50;5376654;26;20431;-68
2024/04/14 05:10:19;;;;;;;17.85;12.00;;;;;;;12.22;100.00;101161.75;5370283;26;20052;-70
2024/04/14 05:12:44;;;;;;;18.20;11.10;;;;;;;12.40;100.00;101174.56;5308503;26;20081;-72
2024/04/14 05:15:10;;;;;;;15.27;11.55;;;;;;;12.37;100.00;101160.63;5295508;27;19998;-70
2024/04/14 05:17:36;;;;;;;13.57;10.85;;;;;;;12.49;100.00;101168.00;5274842;27;20072;-74
2024/04/14 05:20:01;;;;;;;14.70;11.50;;;;;;;12.35;100.00;101126.00;5283106;27;20001;-67
2024/04/14 05:22:27;;;;;;;16.55;11.65;;;;;;;12.64;100.00;101166.03;5311225;27;20002;-69
2024/04/14 05:24:52;;;;;;;18.67;12.40;;;;;;;12.74;100.00;101170.72;5307785;27;20016;-68
2024/04/14 05:27:19;;;;;;;14.80;13.20;;;;;;;12.77;100.00;101173.47;5303349;27;20069;-72
2024/04/14 05:29:48;;;;;;;13.43;11.75;;;;;;;12.76;100.00;101153.56;5307104;26;20002;-67
2024/04/14 05:32:15;;;;;;;17.42;12.93;;;;;;;12.74;100.00;101160.38;5307150;26;20026;-71
2024/04/14 05:34:41;;;;;;;15.13;12.55;;;;;;;12.85;100.00;101162.50;5307654;27;20012;-70
2024/04/14 05:37:06;;;;;;;17.90;13.43;;;;;;;13.13;100.00;101179.13;5303752;27;20383;-74
2024/04/14 05:39:32;;;;;;;17.92;13.88;;;;;;;13.08;100.00;101156.50;5276695;27;20052;-70
2024/04/14 05:41:58;;;;;;;16.67;14.20;;;;;;;13.26;100.00;101177.03;5304750;27;19997;-68
2024/04/14 05:44:24;;;;;;;15.27;13.65;;;;;;;13.12;100.00;101123.78;5307944;27;20029;-66
2024/04/14 05:46:50;;;;;;;14.35;12.85;;;;;;;13.44;100.00;101155.22;5307798;27;19997;-66
2024/04/14 05:49:16;;;;;;;18.35;14.05;;;;;;;13.68;100.00;101168.22;5325522;26;20003;-71
2024/04/14 05:51:41;;;;;;;16.35;13.50;;;;;;;13.87;100.00;101161.06;5377449;26;20004;-69
2024/04/14 05:54:07;;;;;;;16.63;13.70;;;;;;;14.05;100.00;101177.25;5377956;26;20454;-69
2024/04/14 05:56:34;;;;;;;16.17;13.48;;;;;;;14.05;100.00;101159.06;5373230;26;20070;-67
2024/04/14 05:58:59;;;;;;;15.60;13.13;;;;;;;14.13;100.00;101164.56;5389749;26;20078;-72
2024/04/14 06:01:25;;;;;;;18.15;13.18;;;;;;;14.26;100.00;101164.97;5345638;26;20399;-71
2024/04/14 06:03:51;;;;;;;18.20;13.45;;;;;;;14.41;100.00;101165.44;5345776;26;20386;-68
2024/04/14 06:06:17;;;;;;;16.15;12.50;;;;;;;14.49;100.00;101156.19;5343928;26;19993;-66
2024/04/14 06:08:42;;;;;;;15.02;13.52;;;;;;;14.66;100.00;101158.47;5345379;26;19997;-66
2024/04/14 06:11:08;;;;;;;15.63;13.73;;;;;;;14.79;100.00;101155.44;5344991;26;20070;-68
2024/04/14 06:13:33;;;;;;;18.60;13.02;;;;;;;14.94;100.00;101159.31;5343860;26;20435;-68
2024/04/14 06:15:59;;;;;;;24.20;13.02;;;;;;;15.01;100.00;101156.94;5345697;26;20000;-68
2024/04/14 06:18:24;;;;;;;19.88;13.70;;;;;;;15.22;100.00;101155.81;5345617;26;20809;-67
2024/04/14 06:20:50;;;;;;;15.10;12.38;;;;;;;15.40;100.00;101159.78;5343664;26;19993;-67
2024/04/14 06:23:15;;;;;;;13.82;12.10;;;;;;;15.52;100.00;101150.56;5345355;26;19993;-67
2024/04/14 06:25:41;;;;;;;20.83;12.50;;;;;;;15.62;100.00;101141.31;5343926;26;19993;-68
2024/04/14 06:28:07;;;;;;;17.08;12.23;;;;;;;15.91;100.00;101158.59;5344875;26;20003;-70
2024/04/14 06:30:32;;;;;;;13.77;11.48;;;;;;;16.06;100.00;101147.69;5345251;26;19993;-68
2024/04/14 06:32:58;;;;;;;18.10;12.05;;;;;;;16.24;100.00;101147.28;5345091;26;19997;-68
2024/04/14 06:35:23;;;;;;;15.07;12.05;;;;;;;16.31;100.00;101128.31;5343128;26;20427;-69
2024/04/14 06:37:49;;;;;;;15.98;12.25;;;;;;;16.65;100.00;101153.44;5344936;26;19993;-69
2024/04/14 06:40:14;;;;;;;17.08;10.32;;;;;;;16.71;100.00;101133.56;5345109;26;20524;-67
2024/04/14 06:42:40;;;;;;;14.52;9.77;;;;;;;16.98;100.00;101155.09;5344748;26;20007;-68
2024/04/14 06:45:06;;;;;;;13.73;9.10;;;;;;;17.07;100.00;101151.81;5344875;26;20025;-70
2024/04/14 06:47:31;;;;;;;13.43;8.93;;;;;;;17.20;100.00;101170.31;5350304;26;20656;-71
2024/04/14 06:49:57;;;;;;;12.43;7.65;;;;;;;17.18;100.00;101141.56;5379619;26;20036;-72
2024/04/14 06:52:23;;;;;;;8.13;7.03;;;;;;;17.52;100.00;101157.94;5379530;26;20358;-69
2024/04/14 06:54:49;;;;;;;10.68;8.18;;;;;;;17.49;100.00;101144.78;5406592;26;20007;-67
2024/04/14 06:57:15;;;;;;;19.33;7.47;;;;;;;17.67;100.00;101161.66;5379774;26;19992;-70
2024/04/14 06:59:41;;;;;;;10.57;6.57;;;;;;;17.54;100.00;101130.09;5380038;26;20029;-69
2024/04/14 07:02:07;;;;;;;11.02;7.30;;;;;;;17.82;100.00;101167.19;5379693;26;19992;-76
2024/04/14 07:04:32;;;;;;;12.32;6.88;;;;;;;18.02;100.00;101164.06;5379691;26;20003;-68
2024/04/14 07:06:58;;;;;;;8.77;6.60;;;;;;;18.21;99.50;101154.81;5379963;26;20750;-70
2024/04/14 07:09:23;;;;;;;10.82;6.10;;;;;;;18.14;97.39;101119.84;5396700;26;20000;-72
2024/04/14 07:14:23;;;;;;;10.02;5.80;;;;;;;18.68;92.14;101159.91;5599232;21;20052;-72
2024/04/14 07:16:48;;;;;;;8.45;5.03;;;;;;;18.89;89.80;101161.94;5450129;26;20011;-69
2024/04/14 07:19:14;;;;;;;11.40;5.78;;;;;;;18.92;90.11;101140.22;5450425;26;19994;-69
2024/04/14 07:21:40;;;;;;;8.63;6.10;;;;;;;19.17;90.09;101167.56;5418048;26;19999;-72
2024/04/14 07:24:05;;;;;;;11.55;6.18;;;;;;;19.10;90.27;101149.16;5454287;26;19995;-70
2024/04/14 07:26:33;;;;;;;10.77;6.50;;;;;;;19.24;89.30;101124.91;5454998;26;20005;-71
2024/04/14 07:29:00;;;;;;;11.68;5.95;;;;;;;19.49;88.54;101161.84;5454638;26;20064;-73
2024/04/14 07:31:25;;;;;;;8.85;5.80;;;;;;;19.52;88.49;101151.41;5454649;26;19991;-71
2024/04/14 07:34:02;;;;;;;10.55;5.70;;;;;;;19.70;88.64;101168.16;5454834;26;20376;-71
2024/04/14 07:36:28;;;;;;;6.97;5.40;;;;;;;19.79;87.53;101149.03;5454834;26;19999;-68
2024/04/14 07:38:54;;;;;;;7.85;5.40;;;;;;;20.04;84.15;101161.56;5454124;26;19998;-69
2024/04/14 07:41:19;;;;;;;9.43;5.28;;;;;;;20.04;82.67;101148.44;5453777;26;20510;-69
2024/04/14 07:43:48;;;;;;;9.95;5.65;;;;;;;20.03;82.85;101130.09;5454063;26;20002;-72
2024/04/14 07:46:14;;;;;;;8.82;5.28;;;;;;;20.18;84.33;101161.66;5454245;26;20502;-69
2024/04/14 07:48:40;;;;;;;8.65;4.47;;;;;;;20.37;82.87;101167.06;5454503;26;19995;-68
2024/04/14 07:51:05;;;;;;;10.13;4.70;;;;;;;20.07;83.44;101099.53;5454367;26;20075;-72
2024/04/14 07:53:31;;;;;;;9.43;4.70;;;;;;;19.98;77.26;101076.75;5454115;26;20068;-74
2024/04/14 07:55:57;;;;;;;7.35;4.70;;;;;;;20.52;80.46;101151.44;5454489;26;20010;-71
2024/04/14 07:58:23;;;;;;;7.55;4.72;;;;;;;20.69;79.58;101163.78;5454115;26;20337;-68
2024/04/14 08:00:49;;;;;;;9.00;4.13;;;;;;;20.74;77.10;101150.75;5453781;26;20329;-69
2024/04/14 08:03:14;;;;;;;8.20;4.15;;;;;;;20.74;75.20;101142.88;5453988;26;19999;-69
2024/04/14 08:05:40;;;;;;;10.63;4.07;;;;;;;20.85;71.69;101123.66;5452690;26;19995;-70
2024/04/14 08:08:08;;;;;;;7.78;3.60;;;;;;;21.03;71.37;101127.25;5454515;26;20002;-70
2024/04/14 08:10:34;;;;;;;7.72;4.05;;;;;;;21.42;70.79;101151.91;5391750;26;19991;-71
2024/04/14 08:13:00;;;;;;;7.63;4.00;;;;;;;21.73;68.96;101143.25;5453463;26;20500;-68
2024/04/14 08:15:26;;;;;;;7.80;4.40;;;;;;;21.86;67.78;101133.63;5453724;26;19994;-73
2024/04/14 08:17:52;;;;;;;9.77;4.32;;;;;;;21.90;68.25;101119.63;5454161;26;20820;-70
2024/04/14 08:20:18;;;;;;;7.60;4.15;;;;;;;22.04;71.42;101136.25;5454062;26;20006;-68
2024/04/14 08:22:43;;;;;;;10.43;4.53;;;;;;;22.15;66.59;101125.75;5453946;26;19991;-69
2024/04/14 08:25:10;;;;;;;9.00;4.13;;;;;;;22.27;67.76;101127.50;5454225;26;20003;-68
2024/04/14 08:27:36;;;;;;;9.27;3.50;;;;;;;22.39;65.92;101134.53;5453860;26;20002;-69
2024/04/14 08:30:01;;;;;;;7.38;3.30;;;;;;;22.41;65.54;101135.41;5453751;26;20358;-71
2024/04/14 08:32:27;;;;;;;8.80;3.65;;;;;;;22.52;63.53;101138.88;5454027;26;20015;-68
2024/04/14 08:34:52;;;;;;;6.55;3.70;;;;;;;22.48;65.63;101134.53;5453614;26;19990;-69
2024/04/14 08:37:18;;;;;;;6.05;3.13;;;;;;;22.47;64.05;101130.13;5454001;26;20437;-68
2024/04/14 08:39:47;;;;;;;9.95;3.90;;;;;;;22.58;63.97;101136.25;5453967;26;19999;-68
2024/04/14 08:42:14;;;;;;;8.30;4.68;;;;;;;22.43;66.55;101105.59;5452385;26;20023;-67
2024/04/14 08:44:41;;;;;;;9.55;3.90;;;;;;;22.60;63.70;101112.56;5453139;26;19995;-69
2024/04/14 08:47:09;;;;;;;8.52;3.80;;;;;;;22.70;66.56;101118.69;5453148;26;19995;-71
2024/04/14 08:49:37;;;;;;;7.15;3.78;;;;;;;22.89;65.73;101132.63;5453334;26;19994;-68
2024/04/14 08:52:05;;;;;;;6.50;4.05;;;;;;;22.99;65.91;101118.59;5453222;26;19999;-68
2024/04/14 08:54:30;;;;;;;5.97;3.75;;;;;;;23.06;64.23;101116.78;5453010;26;20456;-67
2024/04/14 08:57:00;;;;;;;7.22;3.78;;;;;;;23.12;64.97;101111.50;5453342;26;19990;-71
2024/04/14 08:59:26;;;;;;;6.10;3.50;;;;;;;23.38;65.41;101116.66;5453294;26;19995;-70
2024/04/14 09:01:52;;;;;;;8.02;3.83;;;;;;;23.31;59.84;101088.59;5448396;26;20078;-68
2024/04/14 09:04:18;;;;;;;7.40;3.75;;;;;;;23.37;59.32;101078.00;5450844;26;20002;-75
2024/04/14 09:06:44;;;;;;;8.93;3.33;;;;;;;23.67;61.57;101097.13;5440300;26;20000;-68
2024/04/14 09:09:13;;;;;;;6.85;3.50;;;;;;;23.63;61.86;101090.13;5416619;26;20097;-69
2024/04/14 09:11:52;;;;;;;5.30;3.07;;;;;;;23.81;59.18;101098.78;5423773;26;20291;-69
2024/04/14 09:14:18;;;;;;;12.43;3.50;;;;;;;23.92;61.03;101107.53;5444335;26;19999;-68
2024/04/14 09:16:44;;;;;;;5.72;3.30;;;;;;;23.79;58.66;101061.00;5433535;26;19999;-69
2024/04/14 09:19:09;;;;;;;7.18;3.22;;;;;;;24.05;58.44;101077.53;5429436;26;20014;-71
2024/04/14 09:21:35;;;;;;;6.15;3.40;;;;;;;24.04;59.32;101065.22;5435326;26;20006;-71
2024/04/14 09:24:02;;;;;;;5.07;2.85;;;;;;;24.17;55.10;101081.78;5434588;26;20035;-71
2024/04/14 09:26:27;;;;;;;3.40;2.13;;;;;;;24.17;48.22;101067.72;5437190;26;20536;-72
2024/04/14 09:29:05;;;;;;;5.53;2.15;;;;;;;24.38;49.71;101080.69;5416467;26;20067;-69
2024/04/14 09:31:31;;;;;;;5.82;3.38;;;;;;;24.46;53.19;101083.28;5416387;26;20434;-69
2024/04/14 09:33:57;;;;;;;6.72;2.70;;;;;;;24.62;51.77;101078.66;5442259;26;19994;-69
2024/04/14 09:36:27;;;;;;;4.30;2.50;;;;;;;24.51;50.48;101041.88;5452364;26;20071;-70
2024/04/14 09:38:53;;;;;;;5.80;3.22;;;;;;;24.87;51.62;101066.09;5474912;26;20015;-68
2024/04/14 09:41:22;;;;;;;8.38;3.20;;;;;;;25.03;54.51;101073.81;5461843;26;20096;-70
2024/04/14 09:43:52;;;;;;;8.30;3.58;;;;;;;25.10;52.12;101056.13;5464935;26;20003;-69
2024/04/14 09:46:18;;;;;;;4.38;2.53;;;;;;;25.27;49.59;101056.75;5450025;26;19995;-70
2024/04/14 09:48:45;;;;;;;6.38;3.00;;;;;;;25.32;50.21;101054.91;5450961;26;20006;-69
2024/04/14 09:51:14;;;;;;;6.05;3.15;;;;;;;25.38;53.06;101046.03;5433325;26;19999;-72
2024/04/14 09:53:41;;;;;;;6.50;3.08;;;;;;;25.28;51.52;101049.69;5451938;26;20052;-71
2024/04/14 09:56:07;;;;;;;6.45;3.13;;;;;;;25.37;49.76;101038.13;5451482;26;20013;-71
2024/04/14 09:58:33;;;;;;;5.15;3.03;;;;;;;25.57;50.07;101043.97;5451933;26;20383;-71
2024/04/14 10:01:02;;;;;;;6.35;2.78;;;;;;;25.74;52.87;101040.19;5441537;26;19995;-72
2024/04/14 10:03:30;;;;;;;6.28;3.05;;;;;;;25.68;49.36;101019.97;5444823;26;19995;-70
2024/04/14 10:05:58;;;;;;;6.10;3.22;;;;;;;25.93;48.88;101043.34;5447781;26;19995;-70
2024/04/14 10:08:24;;;;;;;6.18;3.10;;;;;;;26.00;49.50;101039.72;5451127;26;20003;-73
2024/04/14 10:10:53;;;;;;;6.93;2.90;;;;;;;26.13;47.33;101021.84;5451414;26;20397;-71
2024/04/14 10:13:19;;;;;;;5.28;2.88;;;;;;;26.18;47.98;101029.72;5450987;26;20347;-71
2024/04/14 10:15:56;;;;;;;6.03;3.25;;;;;;;26.45;46.20;101025.66;5451127;26;20048;-70
2024/04/14 10:18:27;;;;;;;6.07;2.72;;;;;;;26.31;44.13;101032.09;5450835;26;20002;-73
2024/04/14 10:20:55;;;;;;;4.53;2.58;;;;;;;26.48;45.79;101025.56;5450458;26;20003;-71
2024/04/14 10:23:22;;;;;;;5.53;2.83;;;;;;;26.58;45.57;101013.03;5451159;26;20028;-74
2024/04/14 10:25:50;;;;;;;6.20;3.05;;;;;;;26.76;42.96;101023.25;5450495;26;20053;-72
2024/04/14 10:28:17;;;;;;;10.10;2.92;;;;;;;26.44;43.58;100987.72;5450536;26;20003;-72
2024/04/14 10:30:44;;;;;;;4.50;2.47;;;;;;;26.87;42.89;101019.53;5440845;26;20031;-73
2024/04/14 10:33:19;;;;;;;4.72;2.70;;;;;;;26.83;42.57;100986.94;5431041;26;20003;-70
2024/04/14 10:35:45;;;;;;;7.45;3.10;;;;;;;27.00;44.66;100998.91;5436216;26;20007;-72
2024/04/14 10:38:21;;;;;;;5.13;3.00;;;;;;;27.08;45.06;100991.66;5445652;26;20072;-72
2024/04/14 10:40:48;;;;;;;5.10;3.05;;;;;;;27.02;43.12;101003.28;5435669;26;20010;-72
2024/04/14 10:43:14;;;;;;;4.22;2.58;;;;;;;26.79;44.18;100972.88;5433159;26;20074;-72
2024/04/14 10:45:40;;;;;;;6.03;2.70;;;;;;;27.20;44.14;101007.25;5449760;26;20011;-70
2024/04/14 10:48:07;;;;;;;6.00;2.90;;;;;;;27.36;42.75;100997.16;5450509;26;20017;-72
2024/04/14 10:50:33;;;;;;;5.20;2.50;;;;;;;27.48;41.66;100990.72;5449996;26;19998;-73
2024/04/14 10:52:58;;;;;;;7.28;3.08;;;;;;;27.56;41.16;100982.56;5450054;26;20035;-72
2024/04/14 10:55:25;;;;;;;9.10;2.90;;;;;;;27.52;43.50;100992.38;5450218;26;20013;-72
2024/04/14 10:57:50;;;;;;;4.40;2.83;;;;;;;27.66;43.30;100983.19;5435590;26;20022;-71
2024/04/14 11:00:17;;;;;;;10.13;2.88;;;;;;;27.87;47.58;100989.72;5443583;26;19998;-70
2024/04/14 11:02:44;;;;;;;6.40;2.80;;;;;;;27.34;41.60;100982.19;5407963;26;20002;-72
2024/04/14 11:05:11;;;;;;;6.32;2.70;;;;;;;27.31;42.53;100956.63;5436805;26;20836;-73
2024/04/14 11:07:38;;;;;;;7.75;2.90;;;;;;;27.52;41.53;100981.75;5442402;26;20014;-72
2024/04/14 11:10:05;;;;;;;8.65;2.92;;;;;;;27.43;41.92;100958.16;5442412;26;20003;-75
2024/04/14 11:12:31;;;;;;;5.57;2.50;;;;;;;27.43;43.95;100972.25;5439386;26;20021;-72
2024/04/14 11:15:01;;;;;;;6.30;2.78;;;;;;;27.31;40.59;100976.97;5437073;26;20326;-71